Time;durP1;ratioP1;P1;durP2;ratioP2;P2;SDS_P1;SDS_P2;PMS_P1;PMS_P2;Temp;Humidity;BMP_temperature;BMP_pressure;BME280_temperature;BME280_humidity;BME280_pressure;Samples;Min_cycle;Max_cycle;Signal;HPM_P1;HPM_P2
2022/05/31 00:00:24;;;;;;;10.50;4.93;;;10.60;99.90;;;;;;5054445;28;20044;-62
2022/05/31 00:02:51;;;;;;;12.55;5.65;;;10.70;99.90;;;;;;5055004;28;20036;-62
2022/05/31 00:05:17;;;;;;;11.02;4.55;;;10.70;99.90;;;;;;5040635;28;20079;-62
2022/05/31 00:07:42;;;;;;;12.02;5.07;;;10.70;99.90;;;;;;5051429;28;20411;-61
2022/05/31 00:10:11;;;;;;;10.65;5.10;;;10.80;99.90;;;;;;5058054;28;20059;-62
2022/05/31 00:12:37;;;;;;;12.02;5.53;;;10.80;99.90;;;;;;5053826;28;20041;-61
2022/05/31 00:15:04;;;;;;;13.30;5.55;;;10.80;99.90;;;;;;5053649;28;20431;-62
2022/05/31 00:17:30;;;;;;;11.02;4.85;;;10.90;99.90;;;;;;5039953;28;20032;-61
2022/05/31 00:19:57;;;;;;;11.35;5.00;;;10.90;99.90;;;;;;5053813;28;20103;-61
2022/05/31 00:22:25;;;;;;;13.35;5.50;;;10.90;99.90;;;;;;5052260;28;20456;-61
2022/05/31 00:24:51;;;;;;;11.25;4.95;;;11.00;99.90;;;;;;5053821;28;20017;-62
2022/05/31 00:27:20;;;;;;;11.65;4.97;;;10.90;99.90;;;;;;5054038;28;20104;-61
2022/05/31 00:29:47;;;;;;;7.97;4.55;;;11.00;99.90;;;;;;5059416;28;20055;-61
2022/05/31 00:32:15;;;;;;;10.88;4.72;;;11.00;99.90;;;;;;5064369;28;20123;-62
2022/05/31 00:34:44;;;;;;;11.30;5.25;;;11.00;99.90;;;;;;5034187;28;20056;-62
2022/05/31 00:37:11;;;;;;;9.60;4.72;;;11.00;99.90;;;;;;5034320;28;20017;-62
2022/05/31 00:39:37;;;;;;;11.23;5.07;;;11.00;99.90;;;;;;5054656;28;20021;-62
2022/05/31 00:42:06;;;;;;;8.68;5.10;;;11.00;99.90;;;;;;5053985;28;20021;-63
2022/05/31 00:44:33;;;;;;;9.73;4.95;;;11.00;99.90;;;;;;5053459;28;20420;-65
2022/05/31 00:47:07;;;;;;;9.45;4.43;;;11.00;99.90;;;;;;5049475;28;20338;-62
2022/05/31 00:49:52;;;;;;;9.63;4.32;;;11.00;99.90;;;;;;5045202;28;20094;-62
2022/05/31 00:52:45;;;;;;;15.60;5.13;;;11.00;99.90;;;;;;5053128;28;20370;-61
2022/05/31 00:55:13;;;;;;;;;;;11.00;99.90;;;;;;5043194;28;20021;-63
2022/05/31 00:57:56;;;;;;;10.82;4.53;;;11.00;99.90;;;;;;5032142;28;20244;-61
2022/05/31 01:00:21;;;;;;;;;;;10.90;99.90;;;;;;5039237;28;20052;-61
2022/05/31 01:02:49;;;;;;;9.93;4.57;;;11.00;99.90;;;;;;5053026;28;20345;-64
2022/05/31 01:05:15;;;;;;;10.98;5.05;;;10.90;99.90;;;;;;5053286;28;20028;-62
2022/05/31 01:07:41;;;;;;;11.80;4.50;;;10.90;99.90;;;;;;5036890;28;20020;-62
2022/05/31 01:10:10;;;;;;;8.70;4.45;;;10.90;99.90;;;;;;5032279;28;20049;-62
2022/05/31 01:12:37;;;;;;;9.15;4.63;;;10.90;99.90;;;;;;5033133;28;20021;-62
2022/05/31 01:15:03;;;;;;;8.55;4.57;;;10.90;99.90;;;;;;5032289;28;20133;-65
2022/05/31 01:17:29;;;;;;;9.32;4.82;;;10.90;99.90;;;;;;5033057;28;20026;-64
2022/05/31 01:20:00;;;;;;;10.55;4.93;;;10.90;99.90;;;;;;5040011;28;20094;-61
2022/05/31 01:22:37;;;;;;;9.48;4.32;;;10.80;99.90;;;;;;5053519;28;20039;-61
2022/05/31 01:25:14;;;;;;;10.23;4.90;;;10.80;99.90;;;;;;5053570;28;20020;-64
2022/05/31 01:27:46;;;;;;;12.38;5.43;;;10.80;99.90;;;;;;5052564;28;20471;-62
2022/05/31 01:30:13;;;;;;;10.35;5.43;;;10.80;99.90;;;;;;5053718;28;20048;-62
2022/05/31 01:32:46;;;;;;;11.35;5.97;;;10.80;99.90;;;;;;5052071;28;20481;-64
2022/05/31 01:35:21;;;;;;;11.15;4.57;;;10.80;99.90;;;;;;5053569;28;20016;-63
2022/05/31 01:38:00;;;;;;;12.38;4.80;;;10.80;99.90;;;;;;5041019;28;20108;-65
2022/05/31 01:40:48;;;;;;;11.05;5.32;;;10.80;99.90;;;;;;5033874;28;20029;-63
2022/05/31 01:43:14;;;;;;;7.80;4.47;;;10.80;99.90;;;;;;5033194;28;20034;-62
2022/05/31 01:45:53;;;;;;;11.55;5.22;;;10.80;99.90;;;;;;5033289;28;20120;-60
2022/05/31 01:48:19;;;;;;;13.43;4.60;;;10.80;99.90;;;;;;5033512;28;20026;-64
2022/05/31 01:50:45;;;;;;;9.82;4.50;;;10.70;99.90;;;;;;5032972;28;20417;-62
2022/05/31 01:53:15;;;;;;;9.25;4.80;;;10.70;99.90;;;;;;5033620;28;20557;-62
2022/05/31 01:55:43;;;;;;;9.65;4.80;;;10.70;99.90;;;;;;5033240;28;20037;-63
2022/05/31 01:58:14;;;;;;;11.57;4.70;;;10.80;99.90;;;;;;5039303;28;20029;-66
2022/05/31 02:00:40;;;;;;;9.88;4.75;;;10.80;99.90;;;;;;5052545;28;20368;-63
2022/05/31 02:03:06;;;;;;;12.63;4.85;;;10.80;99.90;;;;;;5041743;28;20033;-64
2022/05/31 02:05:32;;;;;;;11.48;4.90;;;10.80;99.90;;;;;;5032417;28;20021;-63
2022/05/31 02:08:00;;;;;;;7.97;4.80;;;10.80;99.90;;;;;;5032709;28;20091;-64
2022/05/31 02:10:27;;;;;;;9.50;5.28;;;10.80;99.90;;;;;;5031322;28;20454;-64
2022/05/31 02:12:53;;;;;;;10.35;5.05;;;10.80;99.90;;;;;;5032626;28;20033;-64
2022/05/31 02:15:21;;;;;;;11.68;4.97;;;10.80;99.90;;;;;;5042395;28;20017;-62
2022/05/31 02:17:46;;;;;;;12.57;5.15;;;10.80;99.90;;;;;;5052662;28;20029;-65
2022/05/31 02:20:13;;;;;;;12.15;5.78;;;10.80;99.90;;;;;;5052218;28;20171;-61
2022/05/31 02:22:38;;;;;;;7.43;4.25;;;10.80;99.90;;;;;;5052018;28;20637;-60
2022/05/31 02:25:05;;;;;;;8.50;4.10;;;10.70;99.90;;;;;;5051940;28;20070;-64
2022/05/31 02:27:30;;;;;;;10.15;4.43;;;10.70;99.90;;;;;;5052233;28;20031;-63
2022/05/31 02:29:56;;;;;;;8.18;4.22;;;10.70;99.90;;;;;;5052340;28;20025;-61
2022/05/31 02:32:21;;;;;;;10.25;4.30;;;10.70;99.90;;;;;;5052293;28;20331;-65
2022/05/31 02:34:49;;;;;;;8.13;4.00;;;10.70;99.90;;;;;;5051892;28;20021;-63
2022/05/31 02:37:16;;;;;;;9.80;4.57;;;10.70;99.90;;;;;;5045869;28;20017;-62
2022/05/31 02:39:42;;;;;;;14.68;4.85;;;10.70;99.90;;;;;;5032356;28;20088;-61
2022/05/31 02:42:09;;;;;;;10.80;5.10;;;10.70;99.90;;;;;;5031860;28;20492;-62
2022/05/31 02:44:35;;;;;;;7.28;3.97;;;10.70;99.90;;;;;;5032342;28;20069;-61
2022/05/31 02:47:01;;;;;;;7.15;3.95;;;10.70;99.90;;;;;;5031798;28;20454;-62
2022/05/31 02:49:27;;;;;;;8.10;3.85;;;10.70;99.90;;;;;;5031953;28;20043;-65
2022/05/31 02:51:53;;;;;;;9.85;4.82;;;10.70;99.90;;;;;;5043394;28;20027;-61
2022/05/31 02:54:19;;;;;;;10.05;4.00;;;10.70;99.90;;;;;;5052083;28;20017;-61
2022/05/31 02:56:46;;;;;;;10.38;4.32;;;10.70;99.90;;;;;;5052081;28;20013;-61
2022/05/31 02:59:12;;;;;;;13.13;5.25;;;10.60;99.90;;;;;;5052016;28;20025;-65
2022/05/31 03:01:39;;;;;;;15.63;5.47;;;10.60;99.90;;;;;;5051455;28;20017;-64
2022/05/31 03:04:06;;;;;;;19.73;6.53;;;10.60;99.90;;;;;;5049895;28;20044;-61
2022/05/31 03:06:32;;;;;;;15.25;5.43;;;10.60;99.90;;;;;;5051317;28;20029;-64
2022/05/31 03:08:58;;;;;;;15.23;5.15;;;10.60;99.90;;;;;;5049946;28;20029;-63
2022/05/31 03:11:53;;;;;;;14.75;4.72;;;10.60;99.90;;;;;;5051300;28;20025;-63
2022/05/31 03:14:45;;;;;;;10.40;4.22;;;10.50;99.90;;;;;;5051170;28;20135;-62
2022/05/31 03:17:20;;;;;;;;;;;10.50;99.90;;;;;;5051604;28;20025;-63
2022/05/31 03:20:00;;;;;;;13.18;4.47;;;10.50;99.90;;;;;;5051440;28;19900;-62
2022/05/31 03:22:29;;;;;;;10.52;4.60;;;10.40;99.90;;;;;;5050871;28;20025;-63
2022/05/31 03:25:04;;;;;;;14.02;4.78;;;10.40;99.90;;;;;;5051142;28;20129;-64
2022/05/31 03:27:31;;;;;;;8.95;4.30;;;10.40;99.90;;;;;;5055159;28;20033;-63
2022/05/31 03:29:59;;;;;;;13.40;4.53;;;10.40;99.90;;;;;;5054786;28;20025;-65
2022/05/31 03:32:24;;;;;;;12.70;5.30;;;10.50;99.90;;;;;;5053224;28;20515;-62
2022/05/31 03:34:51;;;;;;;14.77;5.30;;;10.50;99.90;;;;;;5053300;28;20524;-63
2022/05/31 03:37:18;;;;;;;15.52;5.20;;;10.50;99.90;;;;;;5054858;28;20025;-63
2022/05/31 03:39:44;;;;;;;13.02;5.60;;;10.50;99.90;;;;;;5054935;28;20025;-64
2022/05/31 03:42:09;;;;;;;13.73;5.88;;;10.50;99.90;;;;;;5054698;28;20017;-66
2022/05/31 03:44:35;;;;;;;14.68;5.38;;;10.50;99.90;;;;;;5054880;28;20052;-64
2022/05/31 03:47:03;;;;;;;11.50;4.60;;;10.50;99.90;;;;;;5054657;28;20021;-63
2022/05/31 03:49:29;;;;;;;19.67;6.57;;;10.50;99.90;;;;;;5054344;28;20028;-63
2022/05/31 03:51:54;;;;;;;13.13;5.18;;;10.50;99.90;;;;;;5054330;28;20029;-64
2022/05/31 03:54:20;;;;;;;8.35;4.15;;;10.60;99.90;;;;;;5054572;28;20025;-61
2022/05/31 03:56:45;;;;;;;12.93;5.28;;;10.50;99.90;;;;;;5054386;28;20050;-65
2022/05/31 03:59:11;;;;;;;11.45;4.15;;;10.60;99.90;;;;;;5054644;28;20107;-63
2022/05/31 04:01:37;;;;;;;9.75;4.35;;;10.60;99.90;;;;;;5054855;28;20135;-65
2022/05/31 04:04:03;;;;;;;9.75;4.00;;;10.60;99.90;;;;;;5053857;28;20116;-64
2022/05/31 04:06:29;;;;;;;8.45;4.30;;;10.60;99.90;;;;;;5054304;28;20490;-61
2022/05/31 04:08:55;;;;;;;11.82;4.40;;;10.70;99.90;;;;;;5052881;28;20052;-62
2022/05/31 04:11:21;;;;;;;8.80;4.45;;;10.80;99.90;;;;;;5054190;28;20071;-62
2022/05/31 04:13:47;;;;;;;10.82;4.63;;;10.80;99.90;;;;;;5054141;28;20025;-64
2022/05/31 04:16:15;;;;;;;8.63;4.30;;;10.90;99.90;;;;;;5054428;28;20036;-64
2022/05/31 04:18:41;;;;;;;9.40;3.72;;;11.00;99.90;;;;;;5054150;28;20352;-63
2022/05/31 04:21:11;;;;;;;10.55;4.63;;;11.10;99.90;;;;;;5054246;28;20055;-63
2022/05/31 04:26:21;;;;;;;12.52;4.70;;;11.20;99.90;;;;;;5054187;28;20408;-63
2022/05/31 04:28:47;;;;;;;14.63;5.07;;;11.30;99.90;;;;;;5054002;28;20441;-65
2022/05/31 04:31:13;;;;;;;9.13;4.20;;;11.40;99.90;;;;;;5053810;28;20049;-62
2022/05/31 04:33:39;;;;;;;9.95;4.28;;;11.50;99.90;;;;;;5053971;28;20043;-61
2022/05/31 04:36:09;;;;;;;17.52;6.55;;;11.60;99.90;;;;;;5053418;28;20029;-65
2022/05/31 04:38:36;;;;;;;23.10;8.18;;;11.70;99.90;;;;;;5047422;28;20079;-64
2022/05/31 04:41:02;;;;;;;10.77;4.63;;;11.90;99.90;;;;;;5053439;28;20023;-63
2022/05/31 04:43:28;;;;;;;15.73;6.03;;;12.00;99.90;;;;;;5064555;28;20041;-66
2022/05/31 04:45:54;;;;;;;10.10;4.20;;;12.10;99.90;;;;;;5053032;28;20072;-64
2022/05/31 04:48:19;;;;;;;17.50;6.43;;;12.20;99.90;;;;;;5053498;28;20033;-62
2022/05/31 04:50:45;;;;;;;11.98;4.53;;;12.30;99.90;;;;;;5053634;28;20092;-60
2022/05/31 04:53:11;;;;;;;8.05;3.97;;;12.30;99.90;;;;;;5053462;28;20067;-62
2022/05/31 04:55:37;;;;;;;15.68;6.72;;;12.40;99.90;;;;;;5053221;28;20028;-61
2022/05/31 04:58:03;;;;;;;11.93;5.07;;;12.50;99.90;;;;;;5053436;28;20033;-65
2022/05/31 05:00:30;;;;;;;9.52;4.47;;;12.60;99.90;;;;;;5053577;28;20028;-60
2022/05/31 05:02:55;;;;;;;16.08;6.25;;;12.60;99.90;;;;;;5053643;28;20114;-60
2022/05/31 05:05:21;;;;;;;14.10;5.05;;;12.70;99.90;;;;;;5053118;28;20048;-62
2022/05/31 05:07:47;;;;;;;9.73;5.00;;;12.70;99.90;;;;;;5053304;28;20411;-62
2022/05/31 05:10:12;;;;;;;7.80;4.60;;;12.80;99.90;;;;;;5052887;28;20584;-62
2022/05/31 05:12:38;;;;;;;10.80;4.85;;;12.80;99.90;;;;;;5053395;28;20522;-61
2022/05/31 05:15:05;;;;;;;15.98;7.22;;;12.90;99.90;;;;;;5052965;28;20027;-63
2022/05/31 05:17:31;;;;;;;12.20;5.40;;;12.90;99.90;;;;;;5053226;28;20095;-65
2022/05/31 05:19:57;;;;;;;17.85;6.63;;;13.00;99.90;;;;;;5051833;28;20025;-65
2022/05/31 05:22:23;;;;;;;13.65;4.70;;;13.20;99.90;;;;;;5052724;28;20098;-64
2022/05/31 05:24:48;;;;;;;21.70;8.70;;;13.30;99.90;;;;;;5053179;28;20043;-63
2022/05/31 05:27:14;;;;;;;11.27;5.18;;;13.30;99.90;;;;;;5052938;28;20100;-62
2022/05/31 05:32:24;;;;;;;13.52;5.05;;;13.60;99.90;;;;;;5052686;28;20110;-66
2022/05/31 05:34:54;;;;;;;14.63;5.43;;;13.90;99.90;;;;;;5052913;28;20029;-65
2022/05/31 05:37:21;;;;;;;12.48;4.80;;;14.10;99.90;;;;;;5052969;28;20365;-62
2022/05/31 05:39:47;;;;;;;8.45;4.32;;;14.30;99.90;;;;;;5052832;28;20033;-60
2022/05/31 05:42:14;;;;;;;10.40;4.65;;;14.50;99.90;;;;;;5052508;28;20070;-62
2022/05/31 05:44:40;;;;;;;12.30;4.95;;;14.80;99.90;;;;;;5052584;28;20040;-62
2022/05/31 05:47:10;;;;;;;11.15;4.68;;;15.20;99.90;;;;;;5052971;28;20025;-62
2022/05/31 05:49:36;;;;;;;8.52;4.68;;;15.60;99.90;;;;;;5052249;28;20104;-62
2022/05/31 05:52:06;;;;;;;10.25;4.88;;;15.90;99.90;;;;;;5039778;28;20387;-61
2022/05/31 05:54:32;;;;;;;8.25;3.83;;;16.10;99.90;;;;;;5032249;28;20108;-62
2022/05/31 05:56:58;;;;;;;13.00;5.50;;;16.40;99.90;;;;;;5032447;28;20108;-61
2022/05/31 05:59:24;;;;;;;7.82;4.47;;;16.50;99.90;;;;;;5032140;28;20028;-65
2022/05/31 06:02:01;;;;;;;8.95;4.72;;;16.60;99.90;;;;;;5031318;28;20025;-60
2022/05/31 06:04:36;;;;;;;10.27;4.55;;;16.70;99.90;;;;;;5031800;28;20029;-63
2022/05/31 06:07:24;;;;;;;11.38;4.45;;;16.90;99.90;;;;;;5032332;28;20021;-59
2022/05/31 06:10:10;;;;;;;7.30;4.25;;;17.20;99.90;;;;;;5031761;28;20035;-60
2022/05/31 06:12:40;;;;;;;10.57;4.43;;;17.80;99.90;;;;;;5032059;28;20113;-63
2022/05/31 06:15:11;;;;;;;6.95;4.00;;;18.70;99.10;;;;;;5032688;28;20017;-61
2022/05/31 06:17:42;;;;;;;6.82;3.83;;;19.40;97.80;;;;;;5032439;28;20100;-65
2022/05/31 06:20:09;;;;;;;10.05;4.72;;;20.10;97.20;;;;;;5032088;28;20025;-63
2022/05/31 06:22:40;;;;;;;10.38;4.95;;;20.80;96.40;;;;;;5032715;28;20083;-65
2022/05/31 06:25:07;;;;;;;9.38;4.40;;;21.50;94.40;;;;;;5032225;28;20022;-64
2022/05/31 06:27:32;;;;;;;8.98;4.25;;;21.90;93.20;;;;;;5031869;28;20025;-63
2022/05/31 06:29:58;;;;;;;9.18;4.45;;;22.10;92.60;;;;;;5030284;28;20553;-65
2022/05/31 06:32:23;;;;;;;9.93;4.10;;;22.70;92.10;;;;;;5032206;28;20052;-66
2022/05/31 06:34:49;;;;;;;8.40;3.88;;;23.50;91.20;;;;;;5032102;28;20374;-62
2022/05/31 06:37:16;;;;;;;7.78;4.28;;;24.30;89.90;;;;;;5032234;28;20025;-62
2022/05/31 06:39:44;;;;;;;7.40;3.90;;;25.10;87.00;;;;;;5032089;28;20029;-62
2022/05/31 06:42:10;;;;;;;9.20;3.65;;;26.00;83.10;;;;;;5031958;28;20021;-62
2022/05/31 06:44:38;;;;;;;7.78;3.30;;;26.70;81.10;;;;;;5030702;28;20120;-62
2022/05/31 06:47:04;;;;;;;6.28;3.50;;;27.40;78.40;;;;;;5032220;28;20026;-62
2022/05/31 06:49:31;;;;;;;9.82;3.33;;;27.90;76.40;;;;;;5032257;28;20083;-62
2022/05/31 06:57:34;;;;;;;7.15;3.40;;;27.30;73.00;;;;;;5044880;28;20108;-62
2022/05/31 07:00:00;;;;;;;7.07;3.30;;;27.10;72.20;;;;;;5031644;28;20096;-62
2022/05/31 07:02:27;;;;;;;5.90;3.30;;;27.10;72.20;;;;;;5037922;28;20402;-63
2022/05/31 07:04:54;;;;;;;8.10;3.70;;;26.90;72.00;;;;;;5037121;28;20050;-62
2022/05/31 07:07:19;;;;;;;8.65;3.85;;;26.70;72.30;;;;;;5037914;28;20029;-62
2022/05/31 07:09:46;;;;;;;11.27;4.90;;;26.80;72.50;;;;;;5038155;28;20377;-62
2022/05/31 07:12:11;;;;;;;8.02;3.63;;;27.00;72.10;;;;;;5047707;28;20406;-62
2022/05/31 07:14:37;;;;;;;6.07;3.78;;;27.00;70.70;;;;;;5057519;28;20111;-60
2022/05/31 07:17:03;;;;;;;8.68;3.70;;;26.80;71.30;;;;;;5057773;28;20036;-61
2022/05/31 07:19:29;;;;;;;6.53;3.88;;;26.60;71.40;;;;;;5057888;28;20033;-62
2022/05/31 07:21:58;;;;;;;8.88;4.10;;;26.60;71.80;;;;;;5054328;28;20412;-61
2022/05/31 07:24:25;;;;;;;9.85;3.83;;;26.70;71.60;;;;;;5050571;28;20033;-61
2022/05/31 07:26:50;;;;;;;9.80;3.45;;;27.10;71.10;;;;;;5057394;28;20021;-62
2022/05/31 07:29:16;;;;;;;7.93;4.15;;;27.50;69.20;;;;;;5057799;28;20028;-62
2022/05/31 07:31:44;;;;;;;6.90;2.92;;;27.70;68.30;;;;;;5057055;28;20048;-62
2022/05/31 07:34:13;;;;;;;8.68;2.75;;;27.60;67.50;;;;;;5055435;28;20029;-62
2022/05/31 07:36:40;;;;;;;10.73;4.00;;;27.30;65.40;;;;;;5055464;28;20423;-62
2022/05/31 07:39:09;;;;;;;7.47;2.65;;;27.00;65.50;;;;;;5056383;28;20698;-62
2022/05/31 07:41:35;;;;;;;7.50;2.53;;;26.70;63.80;;;;;;5061262;28;20509;-62
2022/05/31 07:44:01;;;;;;;7.72;2.70;;;26.40;64.70;;;;;;5069319;28;20115;-62
2022/05/31 07:46:29;;;;;;;4.97;2.67;;;26.00;64.70;;;;;;5076103;28;20089;-62
2022/05/31 07:48:56;;;;;;;6.13;2.42;;;25.70;64.20;;;;;;5077855;28;20027;-62
2022/05/31 07:51:22;;;;;;;9.48;3.30;;;25.50;65.10;;;;;;5069529;28;20108;-62
2022/05/31 07:53:47;;;;;;;7.78;2.15;;;25.30;65.10;;;;;;5056773;28;20167;-62
2022/05/31 07:56:13;;;;;;;5.75;2.47;;;25.20;65.80;;;;;;5057973;28;20048;-62
2022/05/31 07:58:42;;;;;;;7.00;2.72;;;25.10;65.00;;;;;;5057477;28;20029;-65
2022/05/31 08:01:10;;;;;;;6.72;2.65;;;24.90;65.30;;;;;;5057525;28;20107;-65
2022/05/31 08:03:37;;;;;;;8.77;3.42;;;25.00;66.20;;;;;;5057524;28;20078;-65
2022/05/31 08:06:16;;;;;;;5.97;2.97;;;25.10;65.50;;;;;;5057261;28;20114;-65
2022/05/31 08:08:42;;;;;;;8.05;3.22;;;25.40;64.90;;;;;;5058054;28;20025;-62
2022/05/31 08:11:14;;;;;;;8.63;3.03;;;25.70;64.50;;;;;;5055985;28;20128;-62
2022/05/31 08:13:40;;;;;;;8.02;3.13;;;26.20;63.60;;;;;;5054940;28;20021;-62
2022/05/31 08:16:10;;;;;;;6.47;2.80;;;26.70;62.70;;;;;;5053645;28;20068;-63
2022/05/31 08:18:37;;;;;;;9.23;2.88;;;27.20;62.40;;;;;;5051789;28;20032;-63
2022/05/31 08:21:08;;;;;;;9.63;3.30;;;28.00;61.80;;;;;;5044554;28;20392;-62
2022/05/31 08:24:17;;;;;;;9.73;3.40;;;28.70;60.20;;;;;;5052096;28;20036;-62
2022/05/31 08:26:43;;;;;;;9.13;3.20;;;29.60;59.00;;;;;;5050817;28;20025;-65
2022/05/31 08:29:08;;;;;;;6.60;2.65;;;30.50;57.90;;;;;;5050694;28;20338;-62
2022/05/31 08:31:36;;;;;;;8.32;3.30;;;31.30;57.00;;;;;;5052391;28;20060;-62
2022/05/31 08:34:04;;;;;;;8.02;3.20;;;32.00;55.20;;;;;;5053686;28;20035;-62
2022/05/31 08:36:30;;;;;;;9.27;3.90;;;32.30;54.60;;;;;;5054261;28;20020;-62
2022/05/31 08:38:55;;;;;;;8.85;3.70;;;32.60;53.50;;;;;;5047574;28;20026;-63
2022/05/31 08:41:56;;;;;;;9.45;3.30;;;33.10;52.60;;;;;;5042525;28;20036;-62
2022/05/31 08:44:28;;;;;;;5.97;3.27;;;33.70;51.00;;;;;;5033199;28;20497;-62
2022/05/31 08:47:00;;;;;;;8.02;3.55;;;34.10;49.60;;;;;;5045632;28;20441;-62
2022/05/31 08:53:12;;;;;;;9.73;3.17;;;34.70;47.80;;;;;;5045768;28;20086;-61
2022/05/31 08:58:55;;;;;;;6.07;2.90;;;35.10;45.60;;;;;;5052384;28;20104;-62
2022/05/31 09:01:24;;;;;;;6.13;2.95;;;35.10;45.60;;;;;;5046854;28;20023;-62
2022/05/31 09:03:59;;;;;;;7.38;2.92;;;35.30;45.30;;;;;;5053494;28;20453;-62
2022/05/31 09:06:32;;;;;;;8.65;3.33;;;35.90;45.00;;;;;;5051606;28;20357;-62
2022/05/31 09:09:09;;;;;;;8.05;3.10;;;36.20;44.30;;;;;;5052805;28;20074;-62
2022/05/31 09:11:39;;;;;;;7.72;2.63;;;36.30;43.40;;;;;;5053589;28;20128;-62
2022/05/31 09:14:13;;;;;;;9.07;2.92;;;36.00;43.40;;;;;;5050384;28;20029;-62
2022/05/31 09:16:48;;;;;;;6.47;2.97;;;34.90;43.70;;;;;;5051721;28;20041;-62
2022/05/31 09:19:29;;;;;;;6.03;2.83;;;33.90;44.90;;;;;;5051933;28;20028;-62
2022/05/31 09:21:55;;;;;;;6.03;2.57;;;33.20;44.90;;;;;;5054002;28;20033;-62
2022/05/31 09:24:22;;;;;;;7.32;2.70;;;32.70;44.70;;;;;;5065195;28;20099;-63
2022/05/31 09:26:59;;;;;;;2.65;1.80;;;32.60;44.00;;;;;;5052517;28;20017;-62
2022/05/31 09:29:44;;;;;;;5.55;2.10;;;32.20;43.30;;;;;;5047539;28;20540;-64
2022/05/31 09:32:28;;;;;;;6.45;2.50;;;31.50;44.70;;;;;;5050291;28;20067;-66
2022/05/31 09:34:57;;;;;;;5.63;2.70;;;31.30;45.30;;;;;;5049246;28;20547;-65
2022/05/31 09:37:53;;;;;;;5.82;2.72;;;31.90;44.90;;;;;;5057855;28;20021;-66
2022/05/31 09:40:45;;;;;;;5.00;2.47;;;32.10;44.90;;;;;;5049491;28;20032;-64
2022/05/31 09:43:39;;;;;;;5.57;2.10;;;31.40;45.00;;;;;;5052135;28;20080;-61
2022/05/31 09:46:10;;;;;;;7.38;2.38;;;30.40;45.30;;;;;;5040115;28;20390;-63
2022/05/31 09:48:44;;;;;;;;;;;29.70;45.70;;;;;;5050470;28;20029;-65
2022/05/31 09:51:31;;;;;;;3.83;2.50;;;29.60;45.50;;;;;;5050979;28;20356;-64
2022/05/31 09:59:29;;;;;;;5.18;2.35;;;33.80;43.50;;;;;;5047746;28;20610;-65
2022/05/31 10:02:01;;;;;;;5.25;2.40;;;35.10;42.00;;;;;;5051962;28;20049;-65
2022/05/31 10:04:31;;;;;;;6.75;2.10;;;34.50;42.10;;;;;;5042827;28;20036;-64
2022/05/31 10:07:04;;;;;;;5.50;2.50;;;33.70;42.90;;;;;;5036744;28;20043;-62
2022/05/31 10:09:37;;;;;;;3.38;2.30;;;33.20;43.50;;;;;;5052551;28;20021;-64
2022/05/31 10:12:30;;;;;;;5.15;2.42;;;33.40;43.10;;;;;;5051570;28;20025;-63
2022/05/31 10:14:56;;;;;;;5.63;2.38;;;33.80;42.90;;;;;;5051403;28;20041;-63
2022/05/31 10:17:33;;;;;;;4.70;2.75;;;33.90;43.60;;;;;;5051374;28;20029;-62
2022/05/31 10:20:08;;;;;;;6.07;2.85;;;33.90;43.80;;;;;;5050915;28;20025;-65
2022/05/31 10:22:35;;;;;;;7.85;2.67;;;33.90;43.60;;;;;;5051755;28;20078;-66
2022/05/31 10:25:19;;;;;;;10.93;3.90;;;33.80;43.90;;;;;;5048832;28;20025;-66
2022/05/31 10:27:45;;;;;;;7.00;3.60;;;33.50;44.00;;;;;;5035643;28;20025;-65
2022/05/31 10:30:19;;;;;;;9.95;3.50;;;33.30;44.40;;;;;;5055049;28;20079;-67
2022/05/31 10:32:51;;;;;;;5.03;3.00;;;32.70;44.30;;;;;;5047769;28;20091;-64
2022/05/31 10:35:25;;;;;;;6.45;3.40;;;32.00;45.10;;;;;;5049318;28;20469;-64
2022/05/31 10:37:59;;;;;;;10.80;3.08;;;31.40;45.20;;;;;;5050023;28;20017;-63
2022/05/31 10:40:33;;;;;;;5.30;2.45;;;30.90;45.50;;;;;;5050782;28;20405;-64
2022/05/31 10:43:06;;;;;;;9.15;3.17;;;30.40;45.70;;;;;;5050915;28;20112;-65
2022/05/31 10:45:32;;;;;;;5.13;2.58;;;30.00;46.30;;;;;;5045736;28;20322;-64
2022/05/31 10:47:59;;;;;;;9.23;3.35;;;29.60;46.50;;;;;;5050267;28;20060;-64
2022/05/31 10:50:33;;;;;;;7.68;2.85;;;29.10;46.70;;;;;;5051197;28;20055;-62
2022/05/31 10:53:22;;;;;;;7.88;2.60;;;28.70;47.10;;;;;;5044458;28;20083;-63
2022/05/31 10:55:57;;;;;;;8.48;2.92;;;28.30;47.70;;;;;;5049458;28;20029;-63
2022/05/31 10:58:57;;;;;;;8.02;3.35;;;27.90;47.80;;;;;;5050163;28;20115;-65
2022/05/31 11:01:42;;;;;;;6.97;2.83;;;27.50;48.10;;;;;;5049660;28;20025;-64
2022/05/31 11:04:22;;;;;;;9.70;2.67;;;27.30;48.30;;;;;;5054633;28;20055;-66
2022/05/31 11:07:06;;;;;;;7.60;2.67;;;27.00;48.60;;;;;;5050417;28;20025;-64
2022/05/31 11:13:34;;;;;;;9.57;4.03;;;26.80;49.90;;;;;;5034636;28;20550;-66
2022/05/31 11:16:09;;;;;;;7.10;2.65;;;27.20;49.20;;;;;;5031010;28;20041;-62
2022/05/31 11:18:40;;;;;;;5.30;2.30;;;27.20;48.80;;;;;;5032072;28;20049;-65
2022/05/31 11:21:17;;;;;;;7.35;3.00;;;27.20;48.90;;;;;;5032118;28;20373;-62
2022/05/31 11:23:45;;;;;;;6.75;2.72;;;27.20;49.50;;;;;;5032112;28;20029;-65
2022/05/31 11:26:32;;;;;;;12.15;4.15;;;28.10;48.10;;;;;;5033623;28;20025;-66
2022/05/31 11:29:31;;;;;;;9.38;3.28;;;28.60;48.30;;;;;;5035406;28;20354;-64
2022/05/31 11:32:36;;;;;;;8.25;2.65;;;29.00;48.00;;;;;;5031964;28;20049;-66
2022/05/31 11:35:15;;;;;;;6.60;2.90;;;29.90;47.30;;;;;;5042831;28;20112;-62
2022/05/31 11:38:00;;;;;;;4.78;2.33;;;30.70;46.60;;;;;;5036653;28;20450;-65
2022/05/31 11:40:50;;;;;;;7.05;2.45;;;30.60;46.40;;;;;;5043235;28;20021;-62
2022/05/31 11:43:29;;;;;;;7.55;3.03;;;30.00;46.30;;;;;;5049286;28;20036;-65
2022/05/31 11:46:26;;;;;;;4.60;2.22;;;29.20;46.50;;;;;;5048431;28;20421;-64
2022/05/31 11:48:59;;;;;;;4.70;2.25;;;28.40;47.10;;;;;;5049395;28;20071;-65
2022/05/31 11:51:40;;;;;;;5.57;2.45;;;27.70;48.40;;;;;;5048882;28;20032;-65
2022/05/31 11:54:41;;;;;;;4.57;2.20;;;27.20;48.80;;;;;;5054498;28;20033;-63
2022/05/31 11:57:37;;;;;;;4.13;2.28;;;26.50;49.30;;;;;;5053659;28;20025;-66
2022/05/31 12:00:09;;;;;;;4.90;2.78;;;25.80;51.00;;;;;;5054564;28;20153;-62
2022/05/31 12:02:47;;;;;;;7.43;2.38;;;25.20;52.40;;;;;;5047149;28;20029;-62
2022/05/31 12:05:31;;;;;;;6.97;2.13;;;24.60;54.50;;;;;;5053561;28;20021;-66
2022/05/31 12:08:23;;;;;;;4.38;2.00;;;24.10;56.80;;;;;;5054820;28;20025;-63
2022/05/31 12:10:53;;;;;;;6.75;2.50;;;23.80;56.90;;;;;;5054255;28;20037;-63
2022/05/31 12:13:20;;;;;;;4.35;1.83;;;23.60;56.30;;;;;;5054964;28;20123;-65
2022/05/31 12:15:49;;;;;;;9.40;1.92;;;23.60;54.90;;;;;;5041715;28;20020;-62
2022/05/31 12:18:18;;;;;;;5.85;2.35;;;23.70;53.30;;;;;;5053737;28;20079;-65
2022/05/31 12:21:07;;;;;;;5.25;1.92;;;24.00;53.90;;;;;;5050636;28;20033;-62
2022/05/31 12:23:40;;;;;;;5.18;1.58;;;24.40;52.80;;;;;;5031453;28;20041;-63
2022/05/31 12:26:32;;;;;;;3.55;1.35;;;25.20;51.20;;;;;;5052481;28;20074;-62
2022/05/31 12:29:04;;;;;;;6.50;2.08;;;26.20;50.30;;;;;;5051817;28;20081;-62
2022/05/31 12:31:34;;;;;;;3.25;1.50;;;26.80;49.80;;;;;;5053134;28;20045;-62
2022/05/31 12:34:13;;;;;;;3.85;1.70;;;27.10;49.00;;;;;;5053438;28;20409;-63
2022/05/31 12:37:07;;;;;;;4.10;2.20;;;27.30;48.10;;;;;;5053232;28;20025;-63
2022/05/31 12:39:44;;;;;;;5.30;2.40;;;27.30;48.20;;;;;;5051172;28;20369;-63
2022/05/31 12:42:12;;;;;;;4.80;2.08;;;27.30;48.60;;;;;;5046347;28;20025;-61
2022/05/31 12:44:39;;;;;;;7.22;3.50;;;27.20;47.90;;;;;;5036968;28;20021;-62
2022/05/31 12:47:22;;;;;;;7.43;4.00;;;27.00;50.10;;;;;;5043078;28;20124;-62
2022/05/31 12:49:56;;;;;;;11.40;4.30;;;26.60;52.80;;;;;;5054337;28;20017;-61
2022/05/31 12:55:00;;;;;;;8.02;3.55;;;25.30;54.30;;;;;;5054368;28;20051;-62
2022/05/31 12:58:26;;;;;;;8.20;3.05;;;24.90;55.10;;;;;;5053127;28;20029;-65
2022/05/31 13:00:37;;;;;;;5.57;3.15;;;24.50;56.40;;;;;;5042517;28;20108;-61
2022/05/31 13:03:05;;;;;;;5.07;2.67;;;24.00;56.80;;;;;;5053781;28;20029;-64
2022/05/31 13:06:10;;;;;;;5.97;2.65;;;23.90;56.80;;;;;;5053664;28;20032;-61
2022/05/31 13:08:48;;;;;;;7.30;3.05;;;23.90;57.00;;;;;;5052487;28;20098;-62
2022/05/31 13:20:28;;;;;;;9.63;4.03;;;24.00;56.20;;;;;;5047416;28;20106;-62
2022/05/31 13:22:59;;;;;;;9.18;3.92;;;24.00;56.50;;;;;;5044823;28;20028;-64
2022/05/31 13:25:32;;;;;;;7.88;3.95;;;24.10;56.70;;;;;;5053549;28;20108;-63
2022/05/31 13:28:01;;;;;;;10.45;4.72;;;24.00;56.60;;;;;;5053209;28;20105;-62
2022/05/31 13:30:33;;;;;;;10.57;4.40;;;23.80;57.10;;;;;;5044015;28;20088;-62
2022/05/31 13:33:08;;;;;;;7.32;3.60;;;23.60;57.30;;;;;;5040702;28;20090;-65
2022/05/31 13:35:33;;;;;;;10.38;4.25;;;23.40;57.70;;;;;;5051501;28;20125;-62
2022/05/31 13:38:20;;;;;;;6.40;4.07;;;23.10;58.20;;;;;;5054146;28;20874;-62
2022/05/31 13:40:51;;;;;;;11.98;4.55;;;22.90;59.60;;;;;;5044201;28;20032;-61
2022/05/31 13:43:29;;;;;;;5.38;3.78;;;22.70;61.30;;;;;;5060320;28;20483;-61
2022/05/31 13:46:03;;;;;;;8.25;3.92;;;22.70;62.00;;;;;;5040972;28;20017;-62